createdAt,value
2023-02-27T00:00:07.101Z,898.00
2023-02-27T00:01:07.101Z,890.00
2023-02-27T00:02:07.055Z,890.00
2023-02-27T00:03:07.018Z,889.00
2023-02-27T00:04:07.004Z,897.00
2023-02-27T00:05:06.973Z,899.00
2023-02-27T00:06:06.944Z,895.00
2023-02-27T00:07:06.919Z,892.00
2023-02-27T00:08:06.882Z,885.00
2023-02-27T00:09:06.902Z,894.00
2023-02-27T00:10:06.827Z,893.00
2023-02-27T00:11:06.810Z,883.00
2023-02-27T00:12:06.781Z,889.00
2023-02-27T00:13:06.746Z,882.00
2023-02-27T00:14:06.717Z,887.00
2023-02-27T00:15:06.697Z,862.00
2023-02-27T00:16:06.677Z,881.00
2023-02-27T00:17:06.648Z,886.00
2023-02-27T00:18:06.605Z,894.00
2023-02-27T00:19:06.585Z,880.00
2023-02-27T00:20:06.551Z,883.00
2023-02-27T00:21:06.524Z,893.00
2023-02-27T00:22:06.500Z,895.00
2023-02-27T00:23:06.473Z,874.00
2023-02-27T00:24:06.439Z,861.00
2023-02-27T00:25:06.409Z,887.00
2023-02-27T00:26:06.395Z,891.00
2023-02-27T00:27:06.359Z,884.00
2023-02-27T00:28:06.336Z,876.00
2023-02-27T00:29:06.311Z,873.00
2023-02-27T00:30:06.271Z,886.00
2023-02-27T00:31:06.362Z,888.00
2023-02-27T00:32:06.302Z,888.00
2023-02-27T00:33:06.194Z,880.00
2023-02-27T00:34:06.168Z,879.00
2023-02-27T00:35:06.145Z,881.00
2023-02-27T00:36:06.112Z,878.00
2023-02-27T00:37:06.121Z,857.00
2023-02-27T00:38:06.063Z,889.00
2023-02-27T00:39:06.041Z,876.00
2023-02-27T00:40:06.027Z,860.00
2023-02-27T00:41:06.003Z,879.00
2023-02-27T00:42:05.972Z,872.00
2023-02-27T00:43:05.935Z,876.00
2023-02-27T00:44:05.913Z,865.00
2023-02-27T00:45:05.905Z,865.00
2023-02-27T00:46:05.860Z,873.00
2023-02-27T00:47:05.841Z,882.00
2023-02-27T00:48:05.804Z,874.00
2023-02-27T00:49:05.780Z,863.00
2023-02-27T00:50:05.759Z,862.00
2023-02-27T00:51:05.727Z,876.00
2023-02-27T03:48:00.794Z,659.00
2023-02-27T03:49:00.777Z,665.00
2023-02-27T03:50:00.760Z,688.00
2023-02-27T03:51:00.723Z,653.00
2023-02-27T03:52:00.709Z,633.00
2023-02-27T03:53:00.675Z,622.00
2023-02-27T03:54:00.662Z,616.00
2023-02-27T03:55:00.730Z,623.00
2023-02-27T03:56:00.613Z,642.00
2023-02-27T03:57:00.590Z,632.00
2023-02-27T03:58:00.562Z,597.00
2023-02-27T03:59:00.541Z,585.00
2023-02-27T04:00:00.521Z,586.00
2023-02-27T04:01:00.508Z,589.00
2023-02-27T04:02:00.569Z,594.00
2023-02-27T04:03:00.486Z,585.00
2023-02-27T04:04:00.438Z,570.00
2023-02-27T04:05:00.407Z,589.00
2023-02-27T04:06:00.393Z,593.00
2023-02-27T04:07:00.361Z,598.00
2023-02-27T04:08:00.332Z,584.00
2023-02-27T04:09:00.310Z,566.00
2023-02-27T04:10:00.317Z,581.00
2023-02-27T04:11:00.278Z,588.00
2023-02-27T04:12:00.250Z,590.00
2023-02-27T04:13:00.244Z,582.00
2023-02-27T04:14:00.202Z,559.00
2023-02-27T04:15:00.165Z,564.00
2023-02-27T04:16:00.220Z,562.00
2023-02-27T04:17:00.114Z,573.00
2023-02-27T04:18:00.101Z,585.00
2023-02-27T04:19:00.100Z,573.00
2023-02-27T04:20:00.039Z,560.00
2023-02-27T04:21:00.018Z,545.00
2023-02-27T04:21:59.998Z,562.00
2023-02-27T04:22:59.973Z,578.00
2023-02-27T04:23:59.956Z,574.00
2023-02-27T04:24:59.956Z,550.00
2023-02-27T04:25:59.931Z,537.00
2023-02-27T04:26:59.891Z,554.00
2023-02-27T04:27:59.883Z,560.00
2023-02-27T04:28:59.836Z,560.00
2023-02-27T04:29:59.831Z,562.00
2023-02-27T04:30:59.842Z,553.00
2023-02-27T04:32:00.021Z,546.00
2023-02-27T04:32:59.770Z,540.00
2023-02-27T04:33:59.741Z,547.00
2023-02-27T04:34:59.694Z,559.00
2023-02-27T04:35:59.677Z,543.00
2023-02-27T04:36:59.658Z,528.00
2023-02-27T04:37:59.646Z,536.00
2023-02-27T04:38:59.627Z,538.00
2023-02-27T04:39:59.597Z,540.00
2023-02-27T04:40:59.582Z,556.00
2023-02-27T04:41:59.564Z,532.00
2023-02-27T04:42:59.557Z,527.00
2023-02-27T04:43:59.516Z,520.00
2023-02-27T04:44:59.497Z,533.00
2023-02-27T04:45:59.539Z,548.00
2023-02-27T04:46:59.452Z,539.00
2023-02-27T04:47:59.434Z,521.00
2023-02-27T04:48:59.423Z,511.00
2023-02-27T04:49:59.401Z,509.00
2023-02-27T04:50:59.384Z,525.00
2023-02-27T04:51:59.357Z,529.00
2023-02-27T04:52:59.339Z,524.00
2023-02-27T04:53:59.327Z,500.00
2023-02-27T04:54:59.295Z,512.00
2023-02-27T04:55:59.290Z,511.00
2023-02-27T04:56:59.260Z,528.00
2023-02-27T04:57:59.256Z,538.00
2023-02-27T04:58:59.233Z,509.00
2023-02-27T04:59:59.210Z,519.00
2023-02-27T05:00:59.199Z,500.00
2023-02-27T05:01:59.490Z,513.00
2023-02-27T05:02:59.250Z,534.00
2023-02-27T05:04:00.618Z,532.00
2023-02-27T05:04:59.113Z,505.00
2023-02-27T05:05:59.135Z,512.00
2023-02-27T05:06:59.075Z,505.00
2023-02-27T05:07:59.072Z,509.00
2023-02-27T05:08:59.041Z,529.00
2023-02-27T05:09:59.041Z,532.00
2023-02-27T05:10:58.994Z,511.00
2023-02-27T05:11:58.949Z,506.00
2023-02-27T05:12:58.927Z,515.00
2023-02-27T05:13:58.906Z,523.00
2023-02-27T05:14:58.890Z,528.00
2023-02-27T05:15:58.953Z,533.00
2023-02-27T05:16:58.848Z,513.00
2023-02-27T05:17:58.836Z,511.00
2023-02-27T05:18:58.862Z,512.00
2023-02-27T05:19:58.783Z,509.00
2023-02-27T05:20:58.765Z,517.00
2023-02-27T05:21:58.757Z,530.00
2023-02-27T05:22:58.728Z,511.00
2023-02-27T05:23:58.695Z,502.00
2023-02-27T05:24:58.667Z,507.00
2023-02-27T05:25:58.643Z,522.00
2023-02-27T05:26:58.627Z,530.00
2023-02-27T05:27:58.599Z,529.00
2023-02-27T05:28:58.574Z,504.00
2023-02-27T05:29:58.557Z,504.00
2023-02-27T05:30:58.535Z,500.00
2023-02-27T05:31:58.594Z,520.00
2023-02-27T05:32:58.498Z,531.00
2023-02-27T05:33:58.474Z,529.00
2023-02-27T05:34:58.459Z,503.00
2023-02-27T05:35:58.454Z,503.00
2023-02-27T05:36:58.409Z,512.00
2023-02-27T05:37:58.377Z,535.00
2023-02-27T05:38:58.368Z,543.00
2023-02-27T05:39:58.332Z,522.00
2023-02-27T05:40:58.311Z,512.00
2023-02-27T05:41:58.280Z,510.00
2023-02-27T05:42:58.251Z,511.00
2023-02-27T05:43:58.235Z,528.00
2023-02-27T05:44:58.213Z,534.00
2023-02-27T05:45:58.188Z,512.00
2023-02-27T05:46:58.149Z,509.00
2023-02-27T05:47:58.118Z,510.00
2023-02-27T05:48:58.095Z,523.00
2023-02-27T05:49:58.080Z,529.00
2023-02-27T05:50:58.048Z,528.00
2023-02-27T05:51:58.020Z,514.00
2023-02-27T05:52:57.999Z,509.00
2023-02-27T05:53:57.980Z,511.00
2023-02-27T05:54:57.960Z,516.00
2023-02-27T05:55:57.945Z,533.00
2023-02-27T05:56:57.925Z,528.00
2023-02-27T05:57:57.896Z,508.00
2023-02-27T05:58:57.867Z,510.00
2023-02-27T05:59:57.841Z,511.00
2023-02-27T06:00:57.824Z,514.00
2023-02-27T06:01:57.820Z,518.00
2023-02-27T06:02:57.787Z,512.00
2023-02-27T06:03:57.757Z,508.00
2023-02-27T06:04:57.753Z,510.00
2023-02-27T06:05:57.722Z,513.00
2023-02-27T06:06:57.708Z,519.00
2023-02-27T06:07:57.666Z,523.00
2023-02-27T06:08:57.642Z,515.00
2023-02-27T06:09:57.615Z,510.00
2023-02-27T06:10:57.608Z,512.00
2023-02-27T06:11:57.584Z,517.00
2023-02-27T06:12:57.575Z,524.00
2023-02-27T06:13:57.547Z,519.00
2023-02-27T06:14:57.513Z,505.00
2023-02-27T06:15:57.475Z,506.00
2023-02-27T06:16:57.465Z,524.00
2023-02-27T06:17:57.453Z,533.00
2023-02-27T06:18:57.396Z,532.00
2023-02-27T06:19:57.375Z,511.00
2023-02-27T06:20:57.348Z,514.00
2023-02-27T06:21:57.319Z,519.00
2023-02-27T06:22:57.280Z,533.00
2023-02-27T06:23:57.251Z,537.00
2023-02-27T06:24:57.222Z,531.00
2023-02-27T06:25:57.175Z,508.00
2023-02-27T06:26:57.149Z,512.00
2023-02-27T06:27:57.134Z,520.00
2023-02-27T06:28:57.097Z,526.00
2023-02-27T06:29:57.093Z,536.00
2023-02-27T06:30:57.164Z,526.00
2023-02-27T06:31:57.086Z,528.00
2023-02-27T06:32:56.986Z,529.00
2023-02-27T06:33:56.939Z,535.00
2023-02-27T06:34:56.923Z,540.00
2023-02-27T06:35:57.018Z,553.00
2023-02-27T06:36:56.856Z,562.00
2023-02-27T06:37:56.837Z,564.00
2023-02-27T06:38:56.803Z,579.00
2023-02-27T06:39:56.763Z,580.00
2023-02-27T06:40:56.740Z,587.00
2023-02-27T06:41:56.697Z,609.00
2023-02-27T06:42:56.693Z,645.00
2023-02-27T06:43:56.634Z,748.00
2023-02-27T06:44:56.608Z,584.00
2023-02-27T06:45:56.840Z,602.00
2023-02-27T06:46:56.565Z,641.00
2023-02-27T06:47:56.531Z,744.00
2023-02-27T06:48:56.535Z,930.00
2023-02-27T06:49:56.464Z,1000.00
2023-02-27T06:50:56.445Z,1021.00
2023-02-27T06:51:56.398Z,1059.00
2023-02-27T06:52:56.473Z,1066.00
2023-02-27T06:53:56.335Z,1120.00
2023-02-27T06:54:56.307Z,1148.00
2023-02-27T06:55:56.277Z,1181.00
2023-02-27T06:56:56.240Z,1221.00
2023-02-27T06:57:56.211Z,1224.00
2023-02-27T06:58:57.602Z,1233.00
2023-02-27T06:59:56.155Z,1262.00
2023-02-27T07:00:56.104Z,1320.00
2023-02-27T07:01:56.072Z,1399.00
2023-02-27T07:02:56.041Z,1453.00
2023-02-27T07:03:56.012Z,1471.00
2023-02-27T07:04:56.019Z,1495.00
2023-02-27T07:05:55.943Z,1534.00
2023-02-27T07:07:35.932Z,1554.00
2023-02-27T07:07:58.616Z,1557.00
2023-02-27T07:09:01.747Z,1569.00
2023-02-27T07:09:56.806Z,1559.00
2023-02-27T07:10:55.784Z,1579.00
2023-02-27T07:11:55.751Z,1615.00
2023-02-27T07:12:55.716Z,1670.00
2023-02-27T11:22:46.662Z,3641.00
2023-02-27T11:23:46.612Z,3621.00
2023-02-27T11:24:46.562Z,3646.00
2023-02-27T11:25:46.515Z,3617.00
2023-02-27T11:26:46.491Z,3642.00
2023-02-27T11:27:46.445Z,3649.00
2023-02-27T11:28:46.379Z,3686.00
2023-02-27T11:29:46.360Z,3731.00
2023-02-27T11:30:46.306Z,3761.00
2023-02-27T11:31:46.275Z,3802.00
2023-02-27T11:32:46.190Z,3818.00
2023-02-27T11:33:46.128Z,3872.00
2023-02-27T11:34:46.090Z,3900.00
2023-02-27T11:35:46.052Z,3902.00
2023-02-27T11:36:45.986Z,3907.00
2023-02-27T11:37:45.952Z,3903.00
2023-02-27T11:38:45.889Z,3908.00
2023-02-27T11:39:45.855Z,3914.00
2023-02-27T11:40:45.809Z,3936.00
2023-02-27T11:41:45.754Z,3927.00
2023-02-27T11:42:45.734Z,3884.00
2023-02-27T15:43:37.227Z,2772.00
2023-02-27T15:44:37.201Z,2768.00
2023-02-27T15:45:37.170Z,2775.00
2023-02-27T15:46:37.155Z,2776.00
2023-02-27T15:47:37.105Z,2756.00
2023-02-27T15:48:37.092Z,2752.00
2023-02-27T15:49:37.059Z,2749.00
2023-02-27T15:50:37.047Z,2755.00
2023-02-27T15:51:37.009Z,2754.00
2023-02-27T15:52:36.976Z,2754.00
2023-02-27T15:53:36.968Z,2749.00
2023-02-27T15:54:36.934Z,2738.00
2023-02-27T15:55:36.904Z,2752.00
2023-02-27T15:56:36.877Z,2746.00
2023-02-27T15:57:36.850Z,2749.00
2023-02-27T15:58:36.898Z,2738.00
2023-02-27T15:59:36.817Z,2737.00
2023-02-27T16:00:36.767Z,2741.00
2023-02-27T16:01:36.760Z,2729.00
2023-02-27T16:02:36.840Z,2733.00
2023-02-27T16:03:36.684Z,2720.00
2023-02-27T16:04:36.658Z,2728.00
2023-02-27T16:05:36.633Z,2729.00
2023-02-27T16:06:36.643Z,2721.00
2023-02-27T16:07:36.577Z,2711.00
2023-02-27T16:08:36.548Z,2720.00
2023-02-27T16:09:36.515Z,2728.00
2023-02-27T16:10:36.509Z,2696.00
2023-02-27T16:11:36.461Z,2718.00
2023-02-27T16:12:36.438Z,2715.00
2023-02-27T16:13:36.412Z,2713.00
2023-02-27T16:14:36.440Z,2703.00
2023-02-27T16:15:36.377Z,2685.00
2023-02-27T16:16:36.450Z,2685.00
2023-02-27T16:17:36.278Z,2690.00
2023-02-27T16:18:36.249Z,2693.00
2023-02-27T16:19:36.213Z,2696.00
2023-02-27T16:20:36.186Z,2710.00
2023-02-27T16:21:36.168Z,2704.00
2023-02-27T16:22:36.126Z,2700.00
2023-02-27T16:23:36.116Z,2699.00
2023-02-27T16:24:36.064Z,2693.00
2023-02-27T16:25:36.127Z,2693.00
2023-02-27T16:26:36.012Z,2695.00
2023-02-27T16:27:35.985Z,2697.00
2023-02-27T16:28:35.953Z,2685.00
2023-02-27T16:29:35.918Z,2710.00
2023-02-27T16:30:35.894Z,2699.00
2023-02-27T16:31:35.961Z,2695.00
2023-02-27T16:32:35.882Z,2693.00
2023-02-27T16:33:35.814Z,2692.00
2023-02-27T16:34:45.110Z,2675.00
2023-02-27T16:35:36.786Z,2676.00
2023-02-27T16:36:35.724Z,2677.00
2023-02-27T20:27:28.061Z,2338.00
2023-02-27T20:28:28.024Z,2322.00
2023-02-27T20:29:27.980Z,2325.00
2023-02-27T20:30:27.947Z,2331.00
2023-02-27T20:31:28.252Z,2313.00
2023-02-27T20:32:27.935Z,2310.00
2023-02-27T20:33:27.853Z,2316.00
2023-02-27T20:34:27.837Z,2325.00
2023-02-27T20:35:27.867Z,2323.00
2023-02-27T20:36:27.778Z,2317.00
2023-02-27T20:37:27.743Z,2291.00
2023-02-27T20:38:27.701Z,2313.00
2023-02-27T20:39:27.669Z,2307.00
2023-02-27T20:40:27.648Z,2303.00
2023-02-27T20:41:29.631Z,2306.00
2023-02-27T20:42:27.558Z,2303.00
2023-02-27T20:43:27.528Z,2309.00
2023-02-27T20:44:27.487Z,2309.00
2023-02-27T20:45:27.451Z,2297.00
2023-02-27T20:46:27.419Z,2296.00
2023-02-27T20:47:27.383Z,2294.00
2023-02-27T20:48:27.356Z,2293.00
2023-02-27T20:49:27.324Z,2294.00
2023-02-27T20:50:27.292Z,2288.00
2023-02-27T20:51:27.728Z,2297.00
2023-02-27T20:52:27.236Z,2293.00
2023-02-27T20:53:27.204Z,2274.00
2023-02-27T20:54:27.171Z,2290.00
2023-02-27T20:55:27.137Z,2288.00
2023-02-27T20:56:27.095Z,2271.00
2023-02-27T20:57:27.069Z,2271.00
2023-02-27T20:58:27.036Z,2280.00
2023-02-27T20:59:27.012Z,2281.00
2023-02-27T21:00:26.978Z,2277.00
2023-02-27T21:01:27.472Z,2269.00
2023-02-27T21:02:26.912Z,2276.00
2023-02-27T21:03:29.246Z,2263.00
2023-02-27T21:04:26.950Z,2276.00
2023-02-27T21:05:26.825Z,2267.00
2023-02-27T21:06:26.791Z,2274.00
2023-02-27T21:07:26.760Z,2261.00
2023-02-27T21:08:26.733Z,2259.00
2023-02-27T21:09:26.699Z,2260.00
2023-02-27T21:10:26.665Z,2250.00
2023-02-27T21:11:26.948Z,2256.00
2023-02-27T21:12:26.615Z,2253.00
2023-02-27T21:13:26.602Z,2253.00
2023-02-27T21:14:26.554Z,2247.00
2023-02-27T21:15:26.542Z,2252.00
2023-02-27T21:16:26.508Z,2240.00
2023-02-27T21:17:26.486Z,2241.00
2023-02-27T21:18:26.466Z,2242.00
2023-02-27T21:19:26.425Z,2245.00
2023-02-27T21:20:26.408Z,2243.00
2023-02-27T21:21:26.483Z,2240.00
2023-02-27T21:22:26.337Z,2247.00
2023-02-27T21:23:26.286Z,2246.00
2023-02-27T21:24:26.259Z,2239.00
2023-02-27T21:25:26.225Z,2245.00
2023-02-27T21:26:26.195Z,2231.00
2023-02-27T21:27:26.155Z,2245.00
2023-02-27T21:28:26.117Z,2233.00
2023-02-27T21:29:26.086Z,2238.00
2023-02-27T21:30:26.074Z,2231.00
2023-02-27T21:31:26.320Z,2223.00
2023-02-27T21:32:26.075Z,2225.00
2023-02-27T21:33:25.961Z,2231.00
2023-02-27T21:34:25.921Z,2225.00
2023-02-27T21:35:25.945Z,2228.00
2023-02-27T21:36:25.874Z,2229.00
2023-02-27T21:37:25.857Z,2229.00
2023-02-27T21:38:25.790Z,2232.00
2023-02-27T21:39:25.768Z,2224.00
2023-02-27T21:40:25.732Z,2215.00
2023-02-27T21:41:25.794Z,2219.00
2023-02-27T23:35:22.229Z,2055.00
2023-02-27T23:54:21.644Z,2029.00
2023-02-27T23:55:21.624Z,2011.00
2023-02-27T23:56:21.584Z,2028.00
2023-02-27T23:57:21.544Z,2035.00
2023-02-27T23:58:21.513Z,2017.00
2023-02-27T23:59:21.479Z,2020.00
